Time;durP1;ratioP1;P1;durP2;ratioP2;P2;SDS_P1;SDS_P2;PMS_P1;PMS_P2;Temp;Humidity;BMP_temperature;BMP_pressure;BME280_temperature;BME280_humidity;BME280_pressure;Samples;Min_cycle;Max_cycle;Signal;HPM_P1;HPM_P2
2021/12/26 00:02:13;;;;;;;4.00;2.10;;;-6.00;99.90;;;;;;5126203;27;20581;-83
2021/12/26 00:04:57;;;;;;;4.27;2.67;;;-6.00;99.90;;;;;;5142070;27;20042;-82
2021/12/26 00:07:42;;;;;;;6.53;2.17;;;-6.00;99.90;;;;;;5142453;27;20493;-82
2021/12/26 00:10:28;;;;;;;3.40;2.10;;;-6.00;99.90;;;;;;5157097;27;20053;-82
2021/12/26 00:13:13;;;;;;;5.33;2.70;;;-6.00;99.90;;;;;;5157237;27;20123;-83
2021/12/26 00:15:59;;;;;;;4.30;1.87;;;-6.00;99.90;;;;;;5127031;27;20045;-82
2021/12/26 00:18:46;;;;;;;4.00;2.20;;;-6.00;99.90;;;;;;5156771;27;20410;-82
2021/12/26 00:21:30;;;;;;;6.90;2.33;;;-6.00;99.90;;;;;;5156398;27;20048;-82
2021/12/26 00:24:14;;;;;;;;;;;-6.00;99.90;;;;;;5141085;27;20076;-83
2021/12/26 00:26:58;;;;;;;3.03;1.92;;;-6.10;99.90;;;;;;5126488;27;20323;-82
2021/12/26 00:29:44;;;;;;;4.23;2.33;;;-6.10;99.90;;;;;;5140776;27;20107;-82
2021/12/26 00:32:28;;;;;;;5.10;2.33;;;-6.10;99.90;;;;;;5155958;27;20490;-83
2021/12/26 00:35:15;;;;;;;5.47;1.93;;;-6.10;99.90;;;;;;5156208;27;20069;-83
2021/12/26 00:38:00;;;;;;;5.10;2.10;;;-6.10;99.90;;;;;;5140668;27;20098;-83
2021/12/26 00:40:45;;;;;;;3.93;1.77;;;-6.10;99.90;;;;;;5140235;27;20053;-82
2021/12/26 00:43:29;;;;;;;3.60;1.90;;;-6.10;99.90;;;;;;5140105;27;20530;-83
2021/12/26 00:46:14;;;;;;;2.97;1.73;;;-4.70;99.90;;;;;;5155842;27;20040;-83
2021/12/26 00:48:58;;;;;;;2.83;1.93;;;-6.20;99.90;;;;;;5156209;27;20118;-83
2021/12/26 00:51:43;;;;;;;7.00;1.87;;;-6.20;99.90;;;;;;5125877;27;20053;-83
2021/12/26 00:54:27;;;;;;;6.70;2.20;;;-6.30;99.90;;;;;;5125369;27;20493;-83
2021/12/26 00:57:11;;;;;;;3.33;2.33;;;-4.90;99.90;;;;;;5156033;27;20442;-83
2021/12/26 00:59:55;;;;;;;3.30;1.87;;;-6.30;99.90;;;;;;5125548;27;20493;-83
2021/12/26 01:02:40;;;;;;;6.20;2.30;;;-6.30;99.90;;;;;;5156105;27;20046;-83
2021/12/26 01:05:28;;;;;;;6.30;2.20;;;-6.30;99.90;;;;;;5139516;27;20088;-83
2021/12/26 01:08:15;;;;;;;4.37;2.57;;;-6.30;99.90;;;;;;5138693;27;20049;-83
2021/12/26 01:11:20;;;;;;;5.00;2.07;;;-6.30;99.90;;;;;;5140043;27;20069;-83
2021/12/26 01:14:12;;;;;;;3.63;1.67;;;-6.40;99.90;;;;;;5139904;27;20393;-83
2021/12/26 01:17:11;;;;;;;8.13;2.60;;;-6.40;99.90;;;;;;5139903;27;20488;-83
2021/12/26 01:19:55;;;;;;;6.90;2.00;;;-6.40;99.90;;;;;;5139664;27;20133;-83
2021/12/26 01:22:40;;;;;;;4.37;2.07;;;-6.50;99.90;;;;;;5155028;27;20038;-83
2021/12/26 01:25:27;;;;;;;6.17;2.13;;;-6.40;99.90;;;;;;5123923;27;20464;-84
2021/12/26 01:28:13;;;;;;;4.67;1.83;;;-6.40;99.90;;;;;;5139568;27;20083;-83
2021/12/26 01:30:58;;;;;;;4.83;1.80;;;-6.50;99.90;;;;;;5155231;27;20081;-84
2021/12/26 01:33:42;;;;;;;5.00;2.50;;;-6.50;99.90;;;;;;5139333;27;20037;-84
2021/12/26 01:36:28;;;;;;;4.97;2.30;;;-6.50;99.90;;;;;;5154553;27;20115;-84
2021/12/26 01:39:13;;;;;;;4.73;2.00;;;-6.40;99.90;;;;;;5139352;27;20136;-84
2021/12/26 01:42:02;;;;;;;3.17;1.87;;;-5.60;99.90;;;;;;5154958;27;20061;-84
2021/12/26 01:44:49;;;;;;;5.83;2.07;;;-6.40;99.90;;;;;;5140097;27;20497;-83
2021/12/26 01:47:33;;;;;;;3.23;1.83;;;-6.40;99.90;;;;;;5154472;27;20454;-84
2021/12/26 01:50:18;;;;;;;5.53;2.00;;;-6.40;99.90;;;;;;5139056;27;20103;-84
2021/12/26 01:53:04;;;;;;;2.73;1.97;;;-6.40;99.90;;;;;;5124673;27;20041;-84
2021/12/26 01:55:49;;;;;;;4.90;1.80;;;-6.40;99.90;;;;;;5139044;27;20042;-84
2021/12/26 01:58:36;;;;;;;2.70;1.77;;;-6.40;99.90;;;;;;5138520;27;20087;-84
2021/12/26 02:01:20;;;;;;;5.83;2.10;;;-6.40;99.90;;;;;;5154515;27;20099;-84
2021/12/26 02:04:05;;;;;;;5.00;1.80;;;-6.40;99.90;;;;;;5138890;27;20061;-84
2021/12/26 02:06:49;;;;;;;5.33;2.10;;;-6.40;99.90;;;;;;5139437;27;20045;-84
2021/12/26 02:09:33;;;;;;;4.20;2.00;;;-6.30;99.90;;;;;;5138336;27;20057;-84
2021/12/26 02:12:17;;;;;;;4.13;2.03;;;-6.40;99.90;;;;;;5138881;27;20115;-84
2021/12/26 02:15:02;;;;;;;;;;;-6.50;99.90;;;;;;5139148;27;20042;-84
2021/12/26 02:17:46;;;;;;;4.33;2.20;;;-6.40;99.90;;;;;;5138320;27;19922;-84
2021/12/26 02:23:28;;;;;;;3.23;1.70;;;-6.40;99.90;;;;;;5154334;27;20161;-84
2021/12/26 02:28:57;;;;;;;5.93;1.93;;;-6.40;99.90;;;;;;5138869;27;20091;-84
2021/12/26 02:31:42;;;;;;;3.70;1.80;;;-6.40;99.90;;;;;;5153787;27;20525;-84
2021/12/26 02:34:26;;;;;;;6.53;1.90;;;-6.30;99.90;;;;;;5124051;27;20041;-84
2021/12/26 02:37:10;;;;;;;3.77;1.77;;;-6.30;99.90;;;;;;5154183;27;20504;-84
2021/12/26 02:39:55;;;;;;;5.37;2.17;;;-6.30;99.90;;;;;;5153701;27;20390;-84
2021/12/26 02:42:40;;;;;;;5.13;2.00;;;-6.30;99.90;;;;;;5138003;27;20100;-84
2021/12/26 02:45:24;;;;;;;3.80;2.13;;;-6.30;99.90;;;;;;5138326;27;20500;-84
2021/12/26 02:48:09;;;;;;;4.53;1.70;;;-6.40;99.90;;;;;;5138371;27;20084;-84
2021/12/26 02:50:57;;;;;;;4.57;1.90;;;-6.40;99.90;;;;;;5123437;27;20106;-84
2021/12/26 02:53:41;;;;;;;5.00;2.17;;;-6.40;99.90;;;;;;5124520;27;20038;-84
2021/12/26 02:56:26;;;;;;;5.37;2.13;;;-6.40;99.90;;;;;;5138304;27;20040;-84
2021/12/26 02:59:10;;;;;;;5.47;2.23;;;-6.40;99.90;;;;;;5154028;27;20077;-84
2021/12/26 03:01:54;;;;;;;2.87;1.90;;;-6.30;99.90;;;;;;5153508;27;20114;-84
2021/12/26 03:04:39;;;;;;;2.90;1.70;;;-6.40;99.90;;;;;;5123462;27;20033;-84
2021/12/26 03:07:23;;;;;;;4.13;1.90;;;-6.40;99.90;;;;;;5138216;27;20489;-84
2021/12/26 03:10:16;;;;;;;6.47;1.80;;;-6.40;99.90;;;;;;5153920;27;20073;-84
2021/12/26 03:13:04;;;;;;;7.22;2.08;;;-6.40;99.90;;;;;;5153940;27;20038;-84
2021/12/26 03:15:49;;;;;;;4.07;1.70;;;-6.40;99.90;;;;;;5153473;27;20126;-84
2021/12/26 03:18:33;;;;;;;4.47;1.90;;;-6.40;99.90;;;;;;5138238;27;20041;-84
2021/12/26 03:21:17;;;;;;;4.60;1.90;;;-6.40;99.90;;;;;;5137943;27;20094;-84
2021/12/26 03:24:02;;;;;;;3.60;2.23;;;-6.30;99.90;;;;;;5138254;27;20073;-84
2021/12/26 03:26:46;;;;;;;6.90;2.00;;;-6.40;99.90;;;;;;5123041;27;20064;-84
2021/12/26 03:29:34;;;;;;;4.20;1.90;;;-6.40;99.90;;;;;;5109108;27;20069;-84
2021/12/26 03:32:19;;;;;;;3.87;2.00;;;-6.40;99.90;;;;;;5138005;27;20382;-84
2021/12/26 03:35:03;;;;;;;13.10;2.53;;;-6.40;99.90;;;;;;5137840;27;20041;-84
2021/12/26 03:37:48;;;;;;;2.47;1.67;;;-6.40;99.90;;;;;;5137446;27;20065;-84
2021/12/26 03:40:32;;;;;;;3.87;1.53;;;-6.40;99.90;;;;;;5137836;27;20103;-85
2021/12/26 03:43:16;;;;;;;4.87;2.20;;;-6.50;99.90;;;;;;5123639;27;20063;-84
2021/12/26 03:46:01;;;;;;;5.10;1.80;;;-6.40;99.90;;;;;;5137355;27;20080;-84
2021/12/26 03:48:45;;;;;;;4.53;1.97;;;-6.40;99.90;;;;;;5156233;27;20038;-84
2021/12/26 03:51:30;;;;;;;4.13;2.23;;;-6.40;99.90;;;;;;5141579;27;20122;-84
2021/12/26 03:54:14;;;;;;;2.83;1.80;;;-6.40;99.90;;;;;;5126754;27;20041;-84
2021/12/26 03:56:58;;;;;;;3.60;2.00;;;-6.40;99.90;;;;;;5156514;27;20054;-84
2021/12/26 03:59:43;;;;;;;4.43;1.90;;;-6.40;99.90;;;;;;5156504;27;20099;-84
2021/12/26 04:02:27;;;;;;;5.97;1.90;;;-6.40;99.90;;;;;;5141383;27;20153;-84
2021/12/26 04:05:13;;;;;;;3.17;1.80;;;-6.40;99.90;;;;;;5126941;27;20045;-85
2021/12/26 04:07:57;;;;;;;6.00;2.20;;;-6.40;99.90;;;;;;5140710;27;20041;-85
2021/12/26 04:10:41;;;;;;;3.63;1.80;;;-6.50;99.90;;;;;;5126590;27;20046;-85
2021/12/26 04:13:26;;;;;;;4.63;2.00;;;-6.50;99.90;;;;;;5156838;27;20118;-84
2021/12/26 04:16:10;;;;;;;4.67;1.73;;;-6.50;99.90;;;;;;5141018;27;20053;-85
2021/12/26 04:18:54;;;;;;;4.40;2.00;;;-6.50;99.90;;;;;;5156240;27;20117;-84
2021/12/26 04:21:39;;;;;;;6.57;1.70;;;;;;;;;;5140859;27;20410;-84
2021/12/26 04:24:23;;;;;;;4.37;1.83;;;;;;;;;;5140942;27;20083;-84
2021/12/26 04:27:08;;;;;;;5.27;2.53;;;-6.60;99.90;;;;;;5140323;27;20110;-84
2021/12/26 04:29:55;;;;;;;3.53;1.80;;;-6.70;99.90;;;;;;5140497;27;20095;-84
2021/12/26 04:32:40;;;;;;;3.70;1.70;;;-6.70;99.90;;;;;;5141266;27;20045;-84
2021/12/26 04:35:24;;;;;;;3.60;2.03;;;-6.80;99.90;;;;;;5140817;27;20061;-84
2021/12/26 04:38:09;;;;;;;4.00;1.50;;;;;;;;;;5155832;27;20505;-84
2021/12/26 04:40:53;;;;;;;3.47;2.10;;;-6.60;99.90;;;;;;5140118;27;20049;-84
2021/12/26 04:43:38;;;;;;;6.10;2.17;;;-6.60;99.90;;;;;;5140593;27;20085;-84
2021/12/26 04:46:23;;;;;;;5.47;2.40;;;;;;;;;;5156226;27;20037;-84
2021/12/26 04:49:07;;;;;;;3.37;2.10;;;;;;;;;;5155654;27;20065;-84
2021/12/26 04:51:52;;;;;;;5.93;2.30;;;;;;;;;;5155644;27;20038;-84
2021/12/26 04:54:36;;;;;;;4.73;1.70;;;;;;;;;;5156060;27;20045;-84
2021/12/26 04:57:21;;;;;;;3.83;1.90;;;-6.60;99.90;;;;;;5140205;27;20034;-84
2021/12/26 05:00:08;;;;;;;3.70;2.17;;;-6.80;99.90;;;;;;5139782;27;20046;-84
2021/12/26 05:02:53;;;;;;;4.43;1.83;;;-6.70;99.90;;;;;;5139687;27;20440;-84
2021/12/26 05:05:38;;;;;;;4.23;2.10;;;-6.70;99.90;;;;;;5155852;27;20493;-84
2021/12/26 05:08:22;;;;;;;4.87;1.87;;;-6.60;99.90;;;;;;5139864;27;20046;-84
2021/12/26 05:11:06;;;;;;;5.87;2.03;;;-6.70;99.90;;;;;;5125025;27;20099;-84
2021/12/26 05:13:51;;;;;;;4.50;1.87;;;-6.70;99.90;;;;;;5139981;27;20087;-84
2021/12/26 05:16:35;;;;;;;3.70;1.70;;;-6.70;99.90;;;;;;5125727;27;20041;-84
2021/12/26 05:19:19;;;;;;;3.93;2.13;;;-6.70;99.90;;;;;;5125396;27;20038;-83
2021/12/26 05:22:04;;;;;;;3.00;2.00;;;-6.70;99.90;;;;;;5139257;27;20211;-84
2021/12/26 05:24:48;;;;;;;3.70;2.03;;;-6.70;99.90;;;;;;5110798;27;20045;-84
2021/12/26 05:27:34;;;;;;;3.50;2.20;;;-6.70;99.90;;;;;;5139903;27;20506;-84
2021/12/26 05:30:19;;;;;;;4.90;2.60;;;-6.80;99.90;;;;;;5139219;27;20517;-84
2021/12/26 05:33:04;;;;;;;4.70;2.40;;;-6.70;99.90;;;;;;5139081;27;20041;-84
2021/12/26 05:35:48;;;;;;;6.37;2.33;;;-6.70;99.90;;;;;;5155267;27;20064;-83
2021/12/26 05:38:32;;;;;;;;;;;-6.70;99.90;;;;;;5155454;27;20378;-83
2021/12/26 05:41:16;;;;;;;4.75;2.42;;;-6.70;99.90;;;;;;5154264;27;20269;-83
2021/12/26 05:44:00;;;;;;;5.77;2.27;;;-5.70;99.90;;;;;;5155002;27;20057;-83
2021/12/26 05:46:45;;;;;;;4.27;2.57;;;-6.70;99.90;;;;;;5139211;27;20455;-83
2021/12/26 05:49:30;;;;;;;3.10;2.17;;;;;;;;;;5124876;27;20053;-83
2021/12/26 05:52:14;;;;;;;4.03;2.20;;;;;;;;;;5154326;27;20049;-83
2021/12/26 05:54:59;;;;;;;3.83;2.37;;;;;;;;;;5154392;27;20113;-84
2021/12/26 05:57:43;;;;;;;3.00;2.00;;;-6.40;99.90;;;;;;5139052;27;20454;-83
2021/12/26 06:00:28;;;;;;;5.73;2.47;;;;;;;;;;5154542;27;20394;-83
2021/12/26 06:03:12;;;;;;;7.50;2.90;;;;;;;;;;5124052;27;20107;-83
2021/12/26 06:05:57;;;;;;;3.87;2.30;;;;;;;;;;5138980;27;20425;-83
2021/12/26 06:08:42;;;;;;;5.70;2.67;;;;;;;;;;5154573;27;20046;-83
2021/12/26 06:11:26;;;;;;;6.03;2.40;;;-6.30;99.90;;;;;;5154122;27;20061;-83
2021/12/26 06:14:10;;;;;;;5.60;3.03;;;-6.80;99.90;;;;;;5124007;27;20077;-83
2021/12/26 06:16:54;;;;;;;4.30;2.70;;;-6.80;99.90;;;;;;5138821;27;20046;-83
2021/12/26 06:19:39;;;;;;;4.43;2.40;;;-6.80;99.90;;;;;;5124213;27;20543;-83
2021/12/26 06:22:24;;;;;;;4.60;2.50;;;;;;;;;;5138413;27;20397;-83
2021/12/26 06:25:09;;;;;;;6.50;2.50;;;;;;;;;;5123701;27;20083;-83
2021/12/26 06:27:54;;;;;;;4.77;2.80;;;;;;;;;;5138703;27;20033;-83
2021/12/26 06:30:38;;;;;;;4.93;2.60;;;;;;;;;;5123234;27;20186;-83
2021/12/26 06:33:22;;;;;;;4.77;2.70;;;;;;;;;;5153664;27;20083;-83
2021/12/26 06:36:08;;;;;;;5.63;2.37;;;;;;;;;;5153747;27;20042;-84
2021/12/26 06:38:52;;;;;;;4.70;2.53;;;;;;;;;;5138527;27;20077;-83
2021/12/26 06:41:38;;;;;;;7.63;2.60;;;;;;;;;;5134880;27;20046;-83
2021/12/26 06:44:23;;;;;;;5.07;2.30;;;;;;;;;;5131096;27;20041;-85
2021/12/26 06:47:08;;;;;;;4.80;2.33;;;;;;;;;;5145404;27;20389;-85
2021/12/26 06:49:52;;;;;;;3.87;2.80;;;;;;;;;;5137220;27;20399;-86
2021/12/26 06:52:37;;;;;;;5.80;3.03;;;;;;;;;;5152629;27;20060;-84
2021/12/26 06:55:21;;;;;;;8.23;3.23;;;;;;;;;;5152487;27;20041;-84
2021/12/26 06:58:06;;;;;;;4.17;2.80;;;;;;;;;;5175005;27;20033;-83
2021/12/26 07:00:51;;;;;;;6.23;2.80;;;;;;;;;;5174795;27;20149;-83
2021/12/26 07:03:36;;;;;;;6.20;2.83;;;;;;;;;;5159007;27;20111;-83
2021/12/26 07:06:21;;;;;;;5.10;2.90;;;;;;;;;;5158567;27;20041;-83
2021/12/26 07:09:06;;;;;;;7.47;3.03;;;;;;;;;;5158991;27;20042;-83
2021/12/26 07:11:50;;;;;;;5.23;2.57;;;;;;;;;;5159016;27;20516;-83
2021/12/26 07:14:35;;;;;;;5.10;2.80;;;;;;;;;;5141212;27;20065;-83
2021/12/26 07:17:19;;;;;;;6.63;2.97;;;;;;;;;;5116189;27;20038;-83
2021/12/26 07:20:04;;;;;;;5.07;3.10;;;;;;;;;;5153444;27;20103;-84
2021/12/26 07:22:49;;;;;;;5.43;2.70;;;;;;;;;;5155819;27;20038;-83
2021/12/26 07:25:34;;;;;;;6.83;3.90;;;;;;;;;;5158164;27;20049;-83
2021/12/26 07:28:18;;;;;;;8.00;3.20;;;;;;;;;;5142978;27;20033;-83
2021/12/26 07:31:03;;;;;;;7.37;2.93;;;;;;;;;;5129152;27;20046;-84
2021/12/26 07:33:48;;;;;;;5.60;3.40;;;;;;;;;;5143966;27;20082;-84
2021/12/26 07:36:32;;;;;;;5.73;3.07;;;;;;;;;;5157016;27;20505;-84
2021/12/26 07:39:17;;;;;;;7.90;3.20;;;;;;;;;;5140985;27;20092;-85
2021/12/26 07:42:03;;;;;;;6.20;3.30;;;-6.50;99.90;;;;;;5156803;27;20050;-84
2021/12/26 07:44:47;;;;;;;5.87;3.20;;;-6.50;99.90;;;;;;5141692;27;20042;-84
2021/12/26 07:47:31;;;;;;;6.80;4.53;;;-5.60;99.90;;;;;;5140994;27;20069;-84
2021/12/26 07:50:16;;;;;;;7.20;4.40;;;;;;;;;;5141453;27;20041;-86
2021/12/26 07:53:06;;;;;;;7.83;4.10;;;;;;;;;;5141559;27;20058;-87
2021/12/26 07:55:51;;;;;;;6.27;3.70;;;;;;;;;;5141627;27;20080;-82
2021/12/26 07:58:35;;;;;;;5.60;3.10;;;;;;;;;;5126665;27;20073;-81
2021/12/26 08:01:20;;;;;;;5.50;2.87;;;;;;;;;;5140960;27;20087;-82
2021/12/26 08:04:05;;;;;;;7.13;3.17;;;;;;;;;;5157078;27;20049;-89
2021/12/26 08:06:49;;;;;;;5.67;3.07;;;-6.50;99.90;;;;;;5141391;27;20041;-82
2021/12/26 08:09:33;;;;;;;9.50;3.20;;;-6.50;99.90;;;;;;5139801;27;20386;-82
2021/12/26 08:12:17;;;;;;;9.77;4.30;;;-6.50;99.90;;;;;;5156472;27;20538;-82
2021/12/26 08:15:02;;;;;;;9.03;3.40;;;-6.50;99.90;;;;;;5141301;27;20163;-82
2021/12/26 08:17:46;;;;;;;7.67;3.60;;;-6.50;99.90;;;;;;5141296;27;20130;-82
2021/12/26 08:20:31;;;;;;;6.50;3.10;;;-6.40;99.90;;;;;;5156255;27;20497;-82
2021/12/26 08:23:15;;;;;;;6.03;3.70;;;-6.40;99.90;;;;;;5126585;27;20083;-82
2021/12/26 08:26:00;;;;;;;6.30;3.77;;;-6.40;99.90;;;;;;5140951;27;20080;-82
2021/12/26 08:28:44;;;;;;;10.40;3.93;;;-6.40;99.90;;;;;;5140251;27;20046;-82
2021/12/26 08:31:29;;;;;;;5.50;3.23;;;-6.40;99.90;;;;;;5156128;27;20170;-82
2021/12/26 08:34:19;;;;;;;9.40;3.70;;;-6.30;99.90;;;;;;5156195;27;20038;-82
2021/12/26 08:37:04;;;;;;;6.73;3.23;;;-6.30;99.90;;;;;;5140918;27;20538;-81
2021/12/26 08:39:49;;;;;;;6.00;3.37;;;-6.30;99.90;;;;;;5112141;27;20046;-82
2021/12/26 08:45:07;;;;;;;7.73;3.97;;;-6.10;99.90;;;;;;5107508;27;1949373;-87
2021/12/26 08:47:55;;;;;;;7.53;3.37;;;-6.20;99.90;;;;;;5156301;27;20122;-86
2021/12/26 08:50:40;;;;;;;7.07;3.87;;;-5.10;99.90;;;;;;5171724;27;20058;-84
2021/12/26 08:53:28;;;;;;;6.00;3.70;;;-6.10;99.90;;;;;;5156552;27;20041;-84
2021/12/26 08:56:13;;;;;;;7.67;3.87;;;-4.40;99.90;;;;;;5156563;27;20098;-83
2021/12/26 08:58:57;;;;;;;7.27;3.70;;;-6.00;99.90;;;;;;5141773;27;20099;-83
2021/12/26 09:01:43;;;;;;;5.90;3.10;;;-5.90;99.90;;;;;;5143236;27;20066;-85
2021/12/26 09:04:27;;;;;;;6.90;3.77;;;-5.80;99.90;;;;;;5134962;27;20159;-85
2021/12/26 09:07:11;;;;;;;6.60;4.10;;;-5.80;99.90;;;;;;5135604;27;20100;-84
2021/12/26 09:09:57;;;;;;;9.27;4.00;;;-5.80;99.90;;;;;;5121055;27;20092;-84
2021/12/26 09:12:42;;;;;;;7.43;3.87;;;-3.80;99.90;;;;;;5135073;27;20435;-84
2021/12/26 09:15:26;;;;;;;6.13;4.07;;;-5.60;99.90;;;;;;5151050;27;20034;-83
2021/12/26 09:18:10;;;;;;;5.60;4.03;;;-5.60;99.90;;;;;;5120945;27;20071;-82
2021/12/26 09:20:54;;;;;;;6.47;3.20;;;-5.60;99.90;;;;;;5167068;27;20073;-84
2021/12/26 09:23:38;;;;;;;5.93;3.57;;;-5.40;99.90;;;;;;5153702;27;20496;-84
2021/12/26 09:26:23;;;;;;;7.60;3.37;;;-5.40;99.90;;;;;;5154185;27;20102;-86
2021/12/26 09:29:07;;;;;;;5.77;3.73;;;;;;;;;;5139635;27;20087;-85
2021/12/26 09:31:53;;;;;;;8.83;3.70;;;-5.30;99.90;;;;;;5153212;27;20034;-85
2021/12/26 09:34:38;;;;;;;7.77;4.87;;;-5.30;99.90;;;;;;5153163;27;20081;-84
2021/12/26 09:37:22;;;;;;;6.60;3.53;;;-5.20;99.90;;;;;;5152880;27;20053;-84
2021/12/26 09:40:07;;;;;;;5.50;3.73;;;-5.10;99.90;;;;;;5154966;27;20041;-84
2021/12/26 09:42:51;;;;;;;6.30;3.43;;;-5.10;99.90;;;;;;5155554;27;20102;-84
2021/12/26 09:45:36;;;;;;;6.10;4.80;;;;;;;;;;5128382;28;20411;-84
2021/12/26 09:48:20;;;;;;;6.13;3.80;;;;;;;;;;5128767;28;20035;-84
2021/12/26 09:51:05;;;;;;;5.73;3.27;;;;;;;;;;5128927;28;20073;-84
2021/12/26 09:53:50;;;;;;;7.53;3.43;;;;;;;;;;5129360;28;20038;-84
2021/12/26 09:56:35;;;;;;;5.07;3.30;;;;;;;;;;5115588;28;20050;-84
2021/12/26 09:59:21;;;;;;;5.53;3.30;;;-4.60;99.90;;;;;;5115889;28;20042;-84
2021/12/26 10:02:13;;;;;;;6.10;3.40;;;-4.40;99.90;;;;;;5114996;28;20088;-84
2021/12/26 10:04:58;;;;;;;6.57;3.70;;;-4.40;99.90;;;;;;5115278;28;20437;-84
2021/12/26 10:07:43;;;;;;;5.50;3.43;;;;;;;;;;5114364;28;20101;-84
2021/12/26 10:10:28;;;;;;;12.30;6.00;;;;;;;;;;5114729;28;20536;-84
2021/12/26 10:13:32;;;;;;;6.30;3.87;;;;;;;;;;5100379;28;20411;-84
2021/12/26 10:16:22;;;;;;;6.37;3.80;;;-4.10;99.90;;;;;;5115561;28;20030;-84
2021/12/26 10:19:08;;;;;;;8.90;4.53;;;-4.10;99.90;;;;;;5114607;28;20088;-84
2021/12/26 10:21:54;;;;;;;7.63;3.70;;;-4.00;99.90;;;;;;5114091;28;20081;-84
2021/12/26 10:24:43;;;;;;;6.33;4.00;;;-3.90;99.90;;;;;;5114035;28;20047;-85
2021/12/26 10:27:31;;;;;;;6.37;3.60;;;-3.70;99.90;;;;;;5114405;28;20038;-84
2021/12/26 10:30:17;;;;;;;5.77;3.60;;;;;;;;;;5114353;28;20646;-84
2021/12/26 10:33:02;;;;;;;7.47;4.07;;;;;;;;;;5113746;28;20046;-84
2021/12/26 10:35:46;;;;;;;5.33;3.43;;;;;;;;;;5113746;28;20038;-85
2021/12/26 10:38:30;;;;;;;5.87;3.63;;;;;;;;;;5115081;28;20391;-84
2021/12/26 10:41:25;;;;;;;6.50;3.67;;;-3.40;99.90;;;;;;5114117;28;20399;-84
2021/12/26 10:44:25;;;;;;;6.88;4.05;;;-3.30;99.90;;;;;;5136091;27;20106;-84
2021/12/26 10:47:14;;;;;;;5.67;3.33;;;-3.20;99.90;;;;;;5140503;27;20089;-84
2021/12/26 10:50:00;;;;;;;6.50;4.00;;;-3.20;99.90;;;;;;5139688;27;20033;-84
2021/12/26 10:52:57;;;;;;;6.90;4.07;;;-3.10;99.90;;;;;;5155747;27;20033;-84
2021/12/26 10:55:51;;;;;;;6.20;3.73;;;-3.00;99.90;;;;;;5156084;27;20053;-84
2021/12/26 10:58:36;;;;;;;10.68;4.13;;;-3.00;99.90;;;;;;5140366;27;20050;-84
2021/12/26 11:01:20;;;;;;;9.47;3.93;;;-2.90;99.90;;;;;;5155869;27;20076;-84
2021/12/26 11:04:05;;;;;;;;;;;-2.80;99.90;;;;;;5155889;27;20091;-84
2021/12/26 11:07:04;;;;;;;6.73;3.70;;;-1.70;99.90;;;;;;5154497;27;19945;-84
2021/12/26 11:10:04;;;;;;;8.00;4.07;;;-2.70;99.90;;;;;;5139623;27;20042;-84
2021/12/26 11:12:54;;;;;;;8.13;3.70;;;-2.60;99.90;;;;;;5139620;27;20038;-85
2021/12/26 11:15:41;;;;;;;5.67;3.43;;;-2.50;99.90;;;;;;5155692;27;20075;-84
2021/12/26 11:18:26;;;;;;;6.40;3.90;;;-2.50;99.90;;;;;;5155498;27;20042;-84
2021/12/26 11:21:13;;;;;;;8.23;4.23;;;-2.40;99.90;;;;;;5139485;27;20068;-84
2021/12/26 11:23:58;;;;;;;11.23;3.90;;;-2.30;99.90;;;;;;5154862;27;20069;-84
2021/12/26 11:26:42;;;;;;;6.50;3.63;;;-2.30;99.90;;;;;;5125151;27;20531;-83
2021/12/26 11:29:27;;;;;;;9.13;3.90;;;-2.20;99.90;;;;;;5125235;27;20073;-86
2021/12/26 11:32:12;;;;;;;7.10;3.97;;;-1.70;99.90;;;;;;5137104;27;20033;-83
2021/12/26 11:35:14;;;;;;;7.13;3.70;;;-2.10;99.90;;;;;;5129282;27;20111;-91
2021/12/26 11:38:01;;;;;;;5.97;3.57;;;-1.30;99.90;;;;;;5138504;27;20087;-82
2021/12/26 11:40:48;;;;;;;5.40;3.50;;;-2.00;99.90;;;;;;5154741;27;20474;-81
2021/12/26 11:43:56;;;;;;;8.10;3.93;;;-1.90;99.90;;;;;;5154259;27;20054;-83
2021/12/26 11:47:12;;;;;;;6.67;4.00;;;-1.90;99.90;;;;;;5138966;27;20025;-84
2021/12/26 11:50:04;;;;;;;7.87;4.00;;;-1.90;99.90;;;;;;5154076;27;20038;-83
2021/12/26 11:53:13;;;;;;;9.27;4.00;;;-1.80;99.90;;;;;;5154582;27;20059;-84
2021/12/26 11:56:21;;;;;;;7.30;3.20;;;-1.80;99.90;;;;;;5138347;27;20075;-83
2021/12/26 11:59:08;;;;;;;6.37;3.30;;;-1.70;99.90;;;;;;5154401;27;20030;-83
2021/12/26 12:01:52;;;;;;;5.43;3.40;;;0.00;99.90;;;;;;5138743;27;20034;-85
2021/12/26 12:04:38;;;;;;;6.10;3.57;;;-1.70;99.90;;;;;;5139285;27;20091;-84
2021/12/26 12:07:23;;;;;;;6.83;3.87;;;-1.60;99.90;;;;;;5139018;27;20046;-83
2021/12/26 12:10:35;;;;;;;7.10;4.10;;;-1.00;99.90;;;;;;5153716;27;20199;-83
2021/12/26 12:13:22;;;;;;;9.17;3.67;;;-1.60;99.90;;;;;;5138562;27;20130;-85
2021/12/26 12:16:11;;;;;;;7.67;3.83;;;-1.50;99.90;;;;;;5154144;27;20042;-84
2021/12/26 12:18:58;;;;;;;5.20;3.27;;;-1.50;99.90;;;;;;5154047;27;20035;-85
2021/12/26 12:21:48;;;;;;;7.07;3.33;;;-1.50;99.90;;;;;;5153313;27;20113;-83
2021/12/26 12:24:33;;;;;;;6.20;3.50;;;-1.50;99.90;;;;;;5137540;27;20029;-83
2021/12/26 12:27:20;;;;;;;6.60;3.63;;;-1.50;99.90;;;;;;5152766;27;20130;-83
2021/12/26 12:30:04;;;;;;;6.70;3.93;;;-1.30;99.90;;;;;;5152257;27;20049;-83
2021/12/26 12:33:13;;;;;;;6.33;3.40;;;-1.50;99.90;;;;;;5151830;27;20034;-83
2021/12/26 12:36:03;;;;;;;5.37;3.10;;;-1.40;99.90;;;;;;5153359;27;20067;-83
2021/12/26 12:38:48;;;;;;;7.17;4.00;;;-1.40;99.90;;;;;;5138566;27;20046;-83
2021/12/26 12:41:38;;;;;;;9.00;3.80;;;-0.10;99.90;;;;;;5154275;27;20037;-85
2021/12/26 12:44:33;;;;;;;6.57;3.50;;;0.70;99.90;;;;;;5153125;27;20118;-83
2021/12/26 12:47:21;;;;;;;7.67;3.90;;;-1.30;99.90;;;;;;5153064;27;20130;-83
2021/12/26 12:50:05;;;;;;;7.30;3.93;;;-1.30;99.90;;;;;;5151828;27;20053;-83
2021/12/26 12:52:51;;;;;;;5.27;3.40;;;-1.30;99.90;;;;;;5138086;27;20156;-83
2021/12/26 12:55:47;;;;;;;7.70;3.23;;;-0.80;99.90;;;;;;5137971;27;20060;-83
2021/12/26 12:58:32;;;;;;;7.10;3.53;;;-1.20;99.90;;;;;;5153864;27;20087;-83
2021/12/26 13:01:37;;;;;;;6.80;3.87;;;-1.20;99.90;;;;;;5153745;27;20489;-83
2021/12/26 13:04:24;;;;;;;7.73;3.67;;;-1.20;99.90;;;;;;5135450;27;20042;-83
2021/12/26 13:07:21;;;;;;;9.47;4.00;;;-1.10;99.90;;;;;;5151768;27;20563;-83
2021/12/26 13:10:12;;;;;;;8.27;3.60;;;-1.10;99.90;;;;;;5152731;27;20094;-82
2021/12/26 13:13:12;;;;;;;6.20;3.60;;;-0.40;99.90;;;;;;5153506;27;20485;-82
2021/12/26 13:15:58;;;;;;;7.10;3.47;;;-1.00;99.90;;;;;;5137582;27;20109;-82
2021/12/26 13:18:43;;;;;;;8.03;4.10;;;-1.00;99.90;;;;;;5153372;27;20055;-82
2021/12/26 13:21:27;;;;;;;5.90;3.50;;;-0.90;99.90;;;;;;5152929;27;20132;-83
2021/12/26 13:24:11;;;;;;;7.07;4.10;;;-0.90;99.90;;;;;;5137086;27;20188;-83
2021/12/26 13:26:55;;;;;;;7.33;4.17;;;0.20;99.90;;;;;;5153186;27;20099;-82
2021/12/26 13:29:48;;;;;;;;;;;-0.80;99.90;;;;;;5138093;27;20506;-83
2021/12/26 13:32:34;;;;;;;9.87;4.17;;;-0.80;99.90;;;;;;5140603;27;19914;-83
2021/12/26 13:35:27;;;;;;;7.47;3.90;;;-0.80;99.90;;;;;;5157350;27;20033;-83
2021/12/26 13:38:12;;;;;;;9.07;3.93;;;-0.70;99.90;;;;;;5142966;27;20037;-84
2021/12/26 13:40:56;;;;;;;;;;;-0.70;99.90;;;;;;5158027;27;20060;-83
2021/12/26 13:43:42;;;;;;;9.73;4.00;;;-0.30;99.90;;;;;;5141605;27;20033;-83
2021/12/26 13:46:32;;;;;;;8.10;4.00;;;-0.70;99.90;;;;;;5157068;27;20886;-83
2021/12/26 13:49:17;;;;;;;9.00;4.60;;;-0.70;99.90;;;;;;5141216;27;20164;-83
2021/12/26 13:52:02;;;;;;;7.77;4.37;;;-0.70;99.90;;;;;;5156497;27;20398;-83
2021/12/26 13:54:51;;;;;;;7.80;4.10;;;-0.60;99.90;;;;;;5157175;27;20083;-83
2021/12/26 13:57:35;;;;;;;7.17;4.33;;;-0.60;99.90;;;;;;5154061;27;20500;-82
2021/12/26 14:00:19;;;;;;;7.90;4.60;;;-0.60;99.90;;;;;;5123083;27;20049;-82
2021/12/26 14:03:06;;;;;;;;;;;0.40;99.90;;;;;;5152733;27;20493;-82
2021/12/26 14:05:51;;;;;;;7.30;4.27;;;-0.50;99.90;;;;;;5151392;27;20074;-83
2021/12/26 14:08:35;;;;;;;7.30;3.93;;;0.30;99.90;;;;;;5152989;27;20083;-83
2021/12/26 14:11:20;;;;;;;7.80;4.47;;;-0.50;99.90;;;;;;5152546;27;20447;-82
2021/12/26 14:14:07;;;;;;;7.47;4.43;;;-0.50;99.90;;;;;;5153134;27;20053;-82
2021/12/26 14:16:51;;;;;;;7.07;4.73;;;-0.30;99.90;;;;;;5137234;27;20042;-82
2021/12/26 14:19:36;;;;;;;8.17;4.57;;;-0.40;99.90;;;;;;5108145;27;20069;-82
2021/12/26 14:22:25;;;;;;;7.63;4.40;;;-0.40;99.90;;;;;;5152502;27;20144;-82
2021/12/26 14:25:10;;;;;;;9.40;4.87;;;-0.40;99.90;;;;;;5152006;27;20072;-85
2021/12/26 14:27:55;;;;;;;8.47;4.77;;;-0.40;99.90;;;;;;5152578;27;20038;-82
2021/12/26 14:30:39;;;;;;;;;;;-0.40;99.90;;;;;;5152816;27;20541;-82
2021/12/26 14:33:30;;;;;;;10.32;4.93;;;-0.50;99.90;;;;;;5148644;27;19985;-82
2021/12/26 14:36:16;;;;;;;7.67;4.63;;;-0.50;99.90;;;;;;5151774;27;20107;-83
2021/12/26 14:39:05;;;;;;;7.40;4.07;;;0.40;99.90;;;;;;5152048;27;20454;-82
2021/12/26 14:41:52;;;;;;;7.33;4.60;;;-0.50;99.90;;;;;;5136878;27;20341;-82
2021/12/26 14:44:48;;;;;;;8.33;4.70;;;-0.50;99.90;;;;;;5151967;27;20103;-82
2021/12/26 14:47:41;;;;;;;8.23;4.70;;;-0.60;99.90;;;;;;5152374;27;20046;-82
2021/12/26 14:50:25;;;;;;;7.67;4.33;;;-0.60;99.90;;;;;;5151802;27;20034;-82
2021/12/26 14:53:13;;;;;;;;;;;-0.60;99.90;;;;;;5153016;27;20030;-82
2021/12/26 14:56:03;;;;;;;6.30;4.07;;;-0.70;99.90;;;;;;5152653;27;19952;-82
2021/12/26 14:58:52;;;;;;;9.30;5.40;;;-0.70;99.90;;;;;;5136665;27;20410;-82
2021/12/26 15:01:36;;;;;;;8.70;4.97;;;-0.70;99.90;;;;;;5151574;27;20061;-82